Time;durP1;ratioP1;P1;durP2;ratioP2;P2;SDS_P1;SDS_P2;PMS_P1;PMS_P2;Temp;Humidity;BMP_temperature;BMP_pressure;BME280_temperature;BME280_humidity;BME280_pressure;Samples;Min_cycle;Max_cycle;Signal;HPM_P1;HPM_P2
2022/04/28 00:00:07;;;;;;;9.48;3.78;;;4.90;99.90;;;;;;4988801;28;20045;-62
2022/04/28 00:02:33;;;;;;;8.68;3.72;;;4.70;99.90;;;;;;4988566;28;20038;-62
2022/04/28 00:04:59;;;;;;;6.60;2.75;;;4.80;99.90;;;;;;5020297;28;20034;-62
2022/04/28 00:07:25;;;;;;;9.52;3.15;;;4.90;99.90;;;;;;4987448;28;20117;-62
2022/04/28 00:09:51;;;;;;;11.48;3.00;;;4.90;99.90;;;;;;4984635;28;20125;-62
2022/04/28 00:12:17;;;;;;;7.28;2.80;;;4.80;99.90;;;;;;4983915;28;20483;-62
2022/04/28 00:14:43;;;;;;;7.80;2.80;;;4.80;99.90;;;;;;4987177;28;20026;-62
2022/04/28 00:17:09;;;;;;;7.72;3.20;;;4.90;99.90;;;;;;4985323;28;20161;-62
2022/04/28 00:19:35;;;;;;;9.38;3.55;;;4.90;99.90;;;;;;4985511;28;20280;-62
2022/04/28 00:22:01;;;;;;;11.10;3.60;;;5.00;99.90;;;;;;4987965;28;20022;-61
2022/04/28 00:24:26;;;;;;;10.10;3.60;;;4.90;99.90;;;;;;4990895;28;20568;-62
2022/04/28 00:26:52;;;;;;;14.82;3.78;;;4.80;99.90;;;;;;4986833;28;20118;-62
2022/04/28 00:29:18;;;;;;;17.60;3.10;;;4.90;99.90;;;;;;4989951;28;20033;-62
2022/04/28 00:31:44;;;;;;;8.80;2.85;;;4.70;99.90;;;;;;4988559;28;20489;-62
2022/04/28 00:34:10;;;;;;;11.20;3.58;;;4.70;99.90;;;;;;4984401;28;20034;-62
2022/04/28 00:36:37;;;;;;;9.88;3.55;;;4.60;99.90;;;;;;4987377;28;20564;-59
2022/04/28 00:39:03;;;;;;;7.95;2.83;;;4.80;99.90;;;;;;4988740;28;20109;-61
2022/04/28 00:41:29;;;;;;;13.10;2.95;;;4.70;99.90;;;;;;4984925;28;20026;-61
2022/04/28 00:43:55;;;;;;;11.73;3.40;;;4.70;99.90;;;;;;4986443;28;20034;-61
2022/04/28 00:46:21;;;;;;;10.73;3.38;;;4.60;99.90;;;;;;4982209;28;20038;-61
2022/04/28 00:51:36;;;;;;;7.53;3.22;;;4.60;99.90;;;;;;4983604;28;20042;-61
2022/04/28 00:54:03;;;;;;;9.13;3.42;;;4.60;99.90;;;;;;4987326;28;20026;-61
2022/04/28 00:56:30;;;;;;;8.45;3.40;;;4.60;99.90;;;;;;4985700;28;20770;-61
2022/04/28 00:59:07;;;;;;;7.63;3.83;;;4.50;99.90;;;;;;4981888;28;20037;-61
2022/04/28 01:01:33;;;;;;;14.13;3.28;;;4.40;99.90;;;;;;4983783;28;20080;-61
2022/04/28 01:03:59;;;;;;;9.75;4.65;;;4.30;99.90;;;;;;4984507;28;20019;-61
2022/04/28 01:06:25;;;;;;;8.82;3.35;;;4.30;99.90;;;;;;4986049;28;20030;-61
2022/04/28 01:08:50;;;;;;;8.00;2.72;;;4.30;99.90;;;;;;4985382;28;20085;-61
2022/04/28 01:11:16;;;;;;;7.93;2.67;;;4.30;99.90;;;;;;4982883;28;20030;-61
2022/04/28 01:13:43;;;;;;;11.27;4.00;;;4.20;99.90;;;;;;4981421;28;20033;-61
2022/04/28 01:16:08;;;;;;;16.38;4.00;;;4.10;99.90;;;;;;4985745;28;20028;-61
2022/04/28 01:18:34;;;;;;;15.38;3.42;;;4.20;99.90;;;;;;4986760;28;20014;-61
2022/04/28 01:21:07;;;;;;;13.07;4.43;;;4.10;99.90;;;;;;4987796;28;20026;-61
2022/04/28 01:23:34;;;;;;;8.77;2.83;;;4.20;99.90;;;;;;4987828;28;20309;-61
2022/04/28 01:26:00;;;;;;;7.22;3.38;;;4.20;99.90;;;;;;4982671;28;20803;-61
2022/04/28 01:28:31;;;;;;;7.45;3.80;;;4.10;99.90;;;;;;4985140;28;20401;-61
2022/04/28 01:30:58;;;;;;;9.85;3.92;;;4.10;99.90;;;;;;4986757;28;20042;-61
2022/04/28 01:33:24;;;;;;;19.20;4.07;;;4.00;99.90;;;;;;4985538;28;20070;-61
2022/04/28 01:35:49;;;;;;;8.10;3.50;;;4.00;99.90;;;;;;4985827;28;20069;-61
2022/04/28 01:38:15;;;;;;;8.80;4.30;;;3.90;99.90;;;;;;4984741;28;20030;-61
2022/04/28 01:40:41;;;;;;;9.32;3.60;;;3.80;99.90;;;;;;4983138;28;20501;-59
2022/04/28 01:43:06;;;;;;;10.18;3.38;;;3.90;99.90;;;;;;4983194;28;20035;-60
2022/04/28 01:45:32;;;;;;;6.80;2.63;;;3.90;99.90;;;;;;4983464;28;20072;-59
2022/04/28 01:47:57;;;;;;;11.23;4.55;;;3.90;99.90;;;;;;4984610;28;20037;-60
2022/04/28 01:50:23;;;;;;;13.38;3.83;;;3.90;99.90;;;;;;4985488;28;20042;-61
2022/04/28 01:55:33;;;;;;;12.10;3.60;;;3.70;99.90;;;;;;4978555;28;20505;-61
2022/04/28 01:57:59;;;;;;;8.90;3.63;;;3.90;99.90;;;;;;4983412;28;20264;-61
2022/04/28 02:00:24;;;;;;;6.90;3.03;;;4.00;99.90;;;;;;4986421;28;20434;-61
2022/04/28 02:02:50;;;;;;;6.60;3.13;;;3.90;99.90;;;;;;4984778;28;20027;-61
2022/04/28 02:05:16;;;;;;;7.38;3.60;;;3.80;99.90;;;;;;4984708;28;20037;-61
2022/04/28 02:07:42;;;;;;;7.22;2.83;;;3.80;99.90;;;;;;4984636;28;20082;-60
2022/04/28 02:10:08;;;;;;;9.45;3.53;;;3.90;99.90;;;;;;5000766;28;20030;-61
2022/04/28 02:12:34;;;;;;;9.45;2.95;;;3.80;99.90;;;;;;4984608;28;20081;-61
2022/04/28 02:15:00;;;;;;;7.60;3.63;;;3.90;99.90;;;;;;4985049;28;20030;-61
2022/04/28 02:17:27;;;;;;;8.90;3.65;;;4.00;99.90;;;;;;5015994;28;20066;-60
2022/04/28 02:19:54;;;;;;;8.40;4.07;;;4.00;99.90;;;;;;4979216;28;20048;-60
2022/04/28 02:22:20;;;;;;;9.48;3.95;;;3.90;99.90;;;;;;4984702;28;20037;-61
2022/04/28 02:24:46;;;;;;;18.67;4.07;;;3.90;99.90;;;;;;4983325;28;20410;-60
2022/04/28 02:27:11;;;;;;;12.30;4.13;;;3.90;99.90;;;;;;4985185;28;20027;-60
2022/04/28 02:29:37;;;;;;;8.68;3.83;;;3.80;99.90;;;;;;4981620;28;20027;-60
2022/04/28 02:32:03;;;;;;;9.85;3.95;;;3.80;99.90;;;;;;4985475;28;20065;-61
2022/04/28 02:34:29;;;;;;;6.68;3.38;;;3.80;99.90;;;;;;5013420;28;20082;-60
2022/04/28 02:36:55;;;;;;;11.00;4.10;;;3.60;99.90;;;;;;4982375;28;20100;-60
2022/04/28 02:39:21;;;;;;;9.55;3.67;;;3.60;99.90;;;;;;4982925;28;20038;-61
2022/04/28 02:41:47;;;;;;;11.68;4.22;;;3.60;99.90;;;;;;4987215;28;20033;-61
2022/04/28 02:44:13;;;;;;;9.90;4.10;;;3.40;99.90;;;;;;4988349;28;20533;-61
2022/04/28 02:46:42;;;;;;;10.60;3.60;;;3.40;99.90;;;;;;4981809;28;20030;-61
2022/04/28 02:49:09;;;;;;;8.45;4.25;;;3.40;99.90;;;;;;4983246;28;20032;-61
2022/04/28 02:51:34;;;;;;;8.48;3.08;;;3.40;99.90;;;;;;4982000;28;20034;-61
2022/04/28 02:54:00;;;;;;;10.43;5.07;;;3.30;99.90;;;;;;4987748;28;20034;-60
2022/04/28 02:56:26;;;;;;;6.55;2.45;;;3.30;99.90;;;;;;4984570;28;20033;-60
2022/04/28 02:58:52;;;;;;;8.77;3.60;;;3.30;99.90;;;;;;4979081;28;20030;-60
2022/04/28 03:01:17;;;;;;;13.65;4.63;;;3.30;99.90;;;;;;4987631;28;20121;-60
2022/04/28 03:03:43;;;;;;;8.15;3.67;;;3.20;99.90;;;;;;4985482;28;20538;-60
2022/04/28 03:11:38;;;;;;;13.70;3.53;;;3.10;99.90;;;;;;4982945;28;20105;-60
2022/04/28 03:14:04;;;;;;;8.57;3.35;;;3.10;99.90;;;;;;4984646;28;20034;-60
2022/04/28 03:16:29;;;;;;;9.00;3.35;;;3.10;99.90;;;;;;5012484;28;20384;-60
2022/04/28 03:18:55;;;;;;;8.70;3.75;;;3.00;99.90;;;;;;4984525;28;20062;-60
2022/04/28 03:21:21;;;;;;;12.90;4.47;;;3.10;99.90;;;;;;4980928;28;20026;-60
2022/04/28 03:23:47;;;;;;;8.57;3.95;;;3.10;99.90;;;;;;4984674;28;20378;-60
2022/04/28 03:26:12;;;;;;;15.10;3.97;;;3.00;99.90;;;;;;4982625;28;20438;-60
2022/04/28 03:28:38;;;;;;;12.02;3.90;;;3.00;99.90;;;;;;4980174;28;20034;-60
2022/04/28 03:31:05;;;;;;;9.77;4.10;;;3.10;99.90;;;;;;4982359;28;20158;-60
2022/04/28 03:33:32;;;;;;;7.18;2.95;;;3.00;99.90;;;;;;4982980;28;20546;-61
2022/04/28 03:35:58;;;;;;;12.88;5.60;;;2.90;99.90;;;;;;4983700;28;20038;-60
2022/04/28 03:38:23;;;;;;;9.70;3.60;;;2.90;99.90;;;;;;5014770;28;20402;-60
2022/04/28 03:40:49;;;;;;;7.47;4.00;;;2.80;99.90;;;;;;4980611;28;20037;-60
2022/04/28 03:43:15;;;;;;;6.82;3.15;;;2.70;99.90;;;;;;4983050;28;20562;-60
2022/04/28 03:45:41;;;;;;;12.25;5.03;;;2.80;99.90;;;;;;4984218;28;20406;-60
2022/04/28 03:48:10;;;;;;;12.07;5.47;;;2.90;99.90;;;;;;4980354;28;20058;-60
2022/04/28 03:50:37;;;;;;;7.63;3.45;;;3.00;99.90;;;;;;4984284;28;20070;-60
2022/04/28 03:53:03;;;;;;;9.25;4.07;;;2.90;99.90;;;;;;4983292;28;20038;-60
2022/04/28 03:55:29;;;;;;;7.15;3.67;;;2.80;99.90;;;;;;4981316;28;20042;-60
2022/04/28 03:57:54;;;;;;;18.35;4.80;;;2.80;99.90;;;;;;4981407;28;20042;-60
2022/04/28 04:00:20;;;;;;;8.45;3.72;;;2.80;99.90;;;;;;4984332;28;20045;-60
2022/04/28 04:02:47;;;;;;;11.75;3.80;;;2.70;99.90;;;;;;4983714;28;20494;-60
2022/04/28 04:05:14;;;;;;;10.65;3.50;;;2.70;99.90;;;;;;4981094;28;20038;-60
2022/04/28 04:07:41;;;;;;;9.27;3.33;;;2.60;99.90;;;;;;4981774;28;20026;-60
2022/04/28 04:10:07;;;;;;;8.23;3.42;;;2.50;99.90;;;;;;4980636;28;20037;-60
2022/04/28 04:12:33;;;;;;;9.20;4.03;;;2.50;99.90;;;;;;4986660;28;20069;-60
2022/04/28 04:14:58;;;;;;;10.88;4.72;;;2.60;99.90;;;;;;4984647;28;20038;-60
2022/04/28 04:17:24;;;;;;;9.15;3.13;;;2.50;99.90;;;;;;4988638;28;20036;-60
2022/04/28 04:19:50;;;;;;;9.57;4.10;;;2.50;99.90;;;;;;4982564;28;20411;-61
2022/04/28 04:22:16;;;;;;;10.35;4.22;;;2.50;99.90;;;;;;4987963;28;20046;-61
2022/04/28 04:24:42;;;;;;;8.48;3.95;;;2.50;99.90;;;;;;4988450;28;20109;-60
2022/04/28 04:27:09;;;;;;;10.68;3.58;;;2.70;99.90;;;;;;4985383;28;20425;-60
2022/04/28 04:29:35;;;;;;;12.68;4.32;;;2.90;99.90;;;;;;4980860;28;20018;-60
2022/04/28 04:32:24;;;;;;;6.45;2.72;;;2.90;99.90;;;;;;4982617;28;20490;-60
2022/04/28 04:34:51;;;;;;;10.05;3.88;;;3.00;99.90;;;;;;4984952;28;20053;-60
2022/04/28 04:37:18;;;;;;;11.75;4.72;;;2.80;99.90;;;;;;4980424;28;20034;-60
2022/04/28 04:39:44;;;;;;;13.50;5.28;;;2.80;99.90;;;;;;4982888;28;21164;-60
2022/04/28 04:42:10;;;;;;;9.93;3.17;;;2.90;99.90;;;;;;4982009;28;20034;-60
2022/04/28 04:44:35;;;;;;;10.48;4.38;;;2.80;99.90;;;;;;4981155;28;20042;-60
2022/04/28 04:47:01;;;;;;;10.38;4.22;;;3.00;99.90;;;;;;4984157;28;20082;-61
2022/04/28 04:49:27;;;;;;;8.98;3.40;;;2.90;99.90;;;;;;4980373;28;20117;-60
2022/04/28 04:51:52;;;;;;;11.63;4.35;;;2.90;99.90;;;;;;4985795;28;20070;-60
2022/04/28 04:54:20;;;;;;;13.63;4.28;;;2.90;99.90;;;;;;4984011;28;20526;-60
2022/04/28 04:56:45;;;;;;;13.05;4.88;;;3.00;99.90;;;;;;4981183;28;20084;-60
2022/04/28 04:59:11;;;;;;;11.10;4.57;;;3.00;99.90;;;;;;4984934;28;20046;-60
2022/04/28 05:01:37;;;;;;;15.63;4.25;;;3.20;99.90;;;;;;4984064;28;20401;-60
2022/04/28 05:04:02;;;;;;;13.93;5.28;;;3.20;99.90;;;;;;4984831;28;20023;-60
2022/04/28 05:06:28;;;;;;;10.68;4.57;;;3.30;99.90;;;;;;4982741;28;20058;-60
2022/04/28 05:08:54;;;;;;;13.10;5.10;;;3.30;99.90;;;;;;4982041;28;20037;-60
2022/04/28 05:11:20;;;;;;;14.55;5.82;;;3.40;99.90;;;;;;4984112;28;20026;-60
2022/04/28 05:13:45;;;;;;;18.10;4.80;;;3.50;99.90;;;;;;4983108;28;20038;-60
2022/04/28 05:16:11;;;;;;;13.05;5.50;;;3.50;99.90;;;;;;4984804;28;20092;-60
2022/04/28 05:18:37;;;;;;;13.65;5.03;;;3.70;99.90;;;;;;4982938;28;20426;-60
2022/04/28 05:21:03;;;;;;;8.27;3.70;;;3.80;99.90;;;;;;4981454;28;20030;-60
2022/04/28 05:23:29;;;;;;;13.27;5.60;;;3.90;99.90;;;;;;4983584;28;20037;-60
2022/04/28 05:25:54;;;;;;;13.85;5.22;;;3.90;99.90;;;;;;4984305;28;20030;-60
2022/04/28 05:28:20;;;;;;;11.00;4.78;;;3.90;99.90;;;;;;4983974;28;20033;-60
2022/04/28 05:30:47;;;;;;;12.88;5.63;;;4.00;99.90;;;;;;4980909;28;20049;-60
2022/04/28 05:33:12;;;;;;;13.43;4.47;;;4.10;99.90;;;;;;4981205;28;20034;-61
2022/04/28 05:35:40;;;;;;;10.35;5.47;;;4.20;99.90;;;;;;4986852;28;20034;-61
2022/04/28 05:38:07;;;;;;;10.50;4.55;;;4.30;99.90;;;;;;4988808;28;20026;-61
2022/04/28 05:40:33;;;;;;;12.90;6.25;;;4.40;99.90;;;;;;5019238;28;20034;-61
2022/04/28 05:45:46;;;;;;;15.73;6.32;;;4.70;99.90;;;;;;4982345;28;20099;-60
2022/04/28 05:48:16;;;;;;;9.90;5.00;;;4.90;99.90;;;;;;4982216;28;20034;-60
2022/04/28 05:50:43;;;;;;;11.60;5.68;;;5.00;99.90;;;;;;4984562;28;20521;-60
2022/04/28 05:53:09;;;;;;;11.82;4.72;;;5.10;99.90;;;;;;4984771;28;20517;-60
2022/04/28 05:55:36;;;;;;;10.73;5.75;;;5.20;99.90;;;;;;4984390;28;20030;-60
2022/04/28 05:58:01;;;;;;;19.35;5.10;;;5.40;99.90;;;;;;4984827;28;20476;-60
2022/04/28 06:00:28;;;;;;;16.80;6.38;;;5.40;99.90;;;;;;4981226;28;20045;-60
2022/04/28 06:02:54;;;;;;;14.73;5.90;;;5.60;99.90;;;;;;4980174;28;20053;-60
2022/04/28 06:05:20;;;;;;;27.00;7.18;;;5.70;99.90;;;;;;4984390;28;20054;-60
2022/04/28 06:07:46;;;;;;;20.90;6.95;;;5.70;99.90;;;;;;4981631;28;20070;-60
2022/04/28 06:10:13;;;;;;;18.83;5.53;;;5.90;99.90;;;;;;4984050;28;20027;-60
2022/04/28 06:12:39;;;;;;;16.98;6.65;;;5.90;99.90;;;;;;4985924;28;20030;-60
2022/04/28 06:15:05;;;;;;;12.77;5.78;;;5.90;99.90;;;;;;4985488;28;20257;-60
2022/04/28 06:17:31;;;;;;;29.25;8.10;;;6.00;99.90;;;;;;4986541;28;20413;-60
2022/04/28 06:19:56;;;;;;;28.10;6.47;;;6.20;99.90;;;;;;4987028;28;20034;-60
2022/04/28 06:22:22;;;;;;;13.98;6.03;;;6.40;99.90;;;;;;4983860;28;20070;-60
2022/04/28 06:24:55;;;;;;;19.40;7.45;;;6.40;99.90;;;;;;4983723;28;20045;-60
2022/04/28 06:27:21;;;;;;;12.57;5.45;;;6.60;99.90;;;;;;4985830;28;20034;-60
2022/04/28 06:29:49;;;;;;;24.85;6.63;;;6.70;99.90;;;;;;4978360;28;20022;-60
2022/04/28 06:32:16;;;;;;;25.00;7.97;;;6.80;99.90;;;;;;4982285;28;20061;-60
2022/04/28 06:34:43;;;;;;;31.77;8.52;;;6.90;99.90;;;;;;5014565;28;20026;-61
2022/04/28 06:37:08;;;;;;;15.50;7.13;;;7.90;99.90;;;;;;4984229;28;20048;-61
2022/04/28 06:39:34;;;;;;;18.30;7.07;;;7.00;99.90;;;;;;4983939;28;20080;-61
2022/04/28 06:42:00;;;;;;;22.33;7.70;;;7.20;99.90;;;;;;4985277;28;20397;-64
2022/04/28 06:44:26;;;;;;;16.88;6.88;;;;;;;;;;4989650;28;20038;-64
2022/04/28 06:46:51;;;;;;;16.52;6.47;;;7.30;99.90;;;;;;4991137;28;20030;-64
2022/04/28 06:49:17;;;;;;;18.52;7.30;;;7.40;99.90;;;;;;4991002;28;20129;-64
2022/04/28 06:51:43;;;;;;;18.90;5.90;;;7.60;99.90;;;;;;4986492;28;20031;-64
2022/04/28 06:54:09;;;;;;;16.08;6.18;;;7.80;99.90;;;;;;5026213;28;20270;-64
2022/04/28 06:56:34;;;;;;;20.75;5.32;;;7.70;99.90;;;;;;4986718;28;20078;-64
2022/04/28 06:59:00;;;;;;;16.20;6.80;;;7.90;99.90;;;;;;4982959;28;20540;-65
2022/04/28 07:01:26;;;;;;;18.85;6.68;;;8.00;99.90;;;;;;4992224;28;20035;-65
2022/04/28 07:03:51;;;;;;;15.40;6.63;;;8.00;99.90;;;;;;4989257;28;20178;-65
2022/04/28 07:06:17;;;;;;;18.73;5.45;;;8.10;99.90;;;;;;4988517;28;20026;-65
2022/04/28 07:08:43;;;;;;;14.60;5.85;;;8.20;99.90;;;;;;4993402;28;20022;-65
2022/04/28 07:11:09;;;;;;;17.35;5.97;;;8.10;99.90;;;;;;4996323;28;20385;-65
2022/04/28 07:13:38;;;;;;;14.95;4.63;;;8.30;99.90;;;;;;4990683;28;20057;-65
2022/04/28 07:16:05;;;;;;;14.82;4.47;;;8.50;99.90;;;;;;4989338;28;20037;-65
2022/04/28 07:18:30;;;;;;;18.27;5.18;;;8.60;99.90;;;;;;4988807;28;20042;-65
2022/04/28 07:20:58;;;;;;;10.15;4.38;;;8.40;99.90;;;;;;4997543;28;20125;-65
2022/04/28 07:23:23;;;;;;;12.02;4.85;;;8.60;99.90;;;;;;4986938;28;20450;-65
2022/04/28 07:25:49;;;;;;;11.20;4.30;;;8.60;99.90;;;;;;4986888;28;20105;-65
2022/04/28 07:28:15;;;;;;;14.15;4.90;;;9.00;99.90;;;;;;4990740;28;20110;-65
2022/04/28 07:30:41;;;;;;;16.23;5.85;;;9.00;99.90;;;;;;4992173;28;20116;-65
2022/04/28 07:33:08;;;;;;;15.77;4.70;;;9.20;99.90;;;;;;4990047;28;20037;-65
2022/04/28 07:35:34;;;;;;;12.55;4.95;;;9.30;99.90;;;;;;4994148;28;20049;-65
2022/04/28 07:38:00;;;;;;;16.23;4.70;;;9.30;99.90;;;;;;4995974;28;20026;-65
2022/04/28 07:40:26;;;;;;;14.02;5.13;;;9.20;99.90;;;;;;4990268;28;20101;-65
2022/04/28 07:42:52;;;;;;;16.45;5.10;;;9.10;99.90;;;;;;4995269;28;20054;-65
2022/04/28 07:45:18;;;;;;;13.07;5.03;;;9.30;99.90;;;;;;4995559;28;20026;-65
2022/04/28 07:47:44;;;;;;;19.58;5.45;;;9.40;99.90;;;;;;4991422;28;20084;-64
2022/04/28 07:50:10;;;;;;;14.00;4.72;;;9.30;99.90;;;;;;4990669;28;20421;-64
2022/04/28 07:52:38;;;;;;;13.38;4.70;;;9.50;99.90;;;;;;5020631;28;20034;-64
2022/04/28 07:55:04;;;;;;;13.93;4.60;;;9.50;99.90;;;;;;4988986;28;20374;-64
2022/04/28 07:57:30;;;;;;;21.10;5.40;;;9.60;99.90;;;;;;4991193;28;20096;-65
2022/04/28 07:59:55;;;;;;;15.05;5.10;;;9.70;99.90;;;;;;4987615;28;20038;-65
2022/04/28 08:02:21;;;;;;;18.33;5.00;;;10.10;99.90;;;;;;4991868;28;20125;-65
2022/04/28 08:04:47;;;;;;;19.25;6.00;;;10.10;99.90;;;;;;4988148;28;20033;-65
2022/04/28 08:07:13;;;;;;;14.85;5.47;;;10.00;99.90;;;;;;4988807;28;20026;-65
2022/04/28 08:09:38;;;;;;;12.05;4.38;;;10.20;99.90;;;;;;4989905;28;20081;-65
2022/04/28 08:12:05;;;;;;;15.23;5.13;;;10.60;99.90;;;;;;5019052;28;20122;-65
2022/04/28 08:14:32;;;;;;;17.40;5.53;;;11.70;99.90;;;;;;4989776;28;20065;-65
2022/04/28 08:16:59;;;;;;;11.73;4.30;;;11.70;99.90;;;;;;4984701;28;20462;-65
2022/04/28 08:19:25;;;;;;;16.05;4.75;;;12.30;99.90;;;;;;4988375;28;20034;-65
2022/04/28 08:21:50;;;;;;;11.80;4.07;;;12.60;99.90;;;;;;4990086;28;20045;-65
2022/04/28 08:24:17;;;;;;;15.55;4.78;;;13.20;99.90;;;;;;4990227;28;20605;-65
2022/04/28 08:26:43;;;;;;;11.85;4.03;;;14.50;99.90;;;;;;4993373;28;20051;-65
2022/04/28 08:29:09;;;;;;;11.75;3.38;;;14.50;99.90;;;;;;4993547;28;20042;-65
2022/04/28 08:31:43;;;;;;;15.30;4.38;;;14.70;99.90;;;;;;4994929;28;20129;-65
2022/04/28 08:34:09;;;;;;;13.52;5.28;;;13.90;99.90;;;;;;4985279;28;20038;-65
2022/04/28 08:36:35;;;;;;;11.52;4.18;;;13.60;99.90;;;;;;4989102;28;20034;-65
2022/04/28 08:39:00;;;;;;;13.68;4.95;;;15.20;99.90;;;;;;4989307;28;20026;-65
2022/04/28 08:41:32;;;;;;;15.80;4.72;;;15.10;99.90;;;;;;4992564;28;20138;-65
2022/04/28 08:44:00;;;;;;;13.50;4.38;;;15.50;99.90;;;;;;4982798;28;20291;-65
2022/04/28 08:49:14;;;;;;;12.23;4.13;;;16.20;98.40;;;;;;4990352;28;20032;-65
2022/04/28 08:51:41;;;;;;;12.35;4.35;;;18.00;96.00;;;;;;4977207;28;20340;-65
2022/04/28 08:54:10;;;;;;;12.18;4.57;;;18.50;94.00;;;;;;4994720;28;20109;-65
2022/04/28 08:56:36;;;;;;;13.75;4.60;;;17.20;94.30;;;;;;4989866;28;20038;-65
2022/04/28 08:59:02;;;;;;;11.93;4.20;;;15.70;98.60;;;;;;4992560;28;20030;-65
2022/04/28 09:01:29;;;;;;;10.02;4.00;;;17.00;96.60;;;;;;4988888;28;20025;-65
2022/04/28 09:03:59;;;;;;;11.23;3.92;;;18.20;94.80;;;;;;4992418;28;20030;-65
2022/04/28 09:06:30;;;;;;;13.68;4.40;;;19.40;91.80;;;;;;4989655;28;20046;-65
2022/04/28 09:08:57;;;;;;;13.32;4.85;;;20.40;91.00;;;;;;4992984;28;20030;-65
2022/04/28 09:11:28;;;;;;;12.13;4.10;;;18.00;92.60;;;;;;4987056;28;20133;-65
2022/04/28 09:14:22;;;;;;;12.60;5.03;;;17.30;93.40;;;;;;4988140;28;20034;-65
2022/04/28 09:16:50;;;;;;;13.10;4.40;;;16.00;95.50;;;;;;4985972;28;20038;-65
2022/04/28 09:19:22;;;;;;;12.43;4.15;;;15.90;96.40;;;;;;4991107;28;20046;-65
2022/04/28 09:21:55;;;;;;;18.02;4.60;;;18.00;93.50;;;;;;4990256;28;20417;-65
2022/04/28 09:24:23;;;;;;;11.98;3.78;;;18.40;92.10;;;;;;4991291;28;20027;-65
2022/04/28 09:26:53;;;;;;;11.80;4.88;;;18.70;92.50;;;;;;4987837;28;20372;-65
2022/04/28 09:29:19;;;;;;;12.40;3.67;;;18.50;92.10;;;;;;4991379;28;20034;-66
2022/04/28 09:31:46;;;;;;;14.63;4.13;;;17.60;94.30;;;;;;4988468;28;20076;-65
2022/04/28 09:34:16;;;;;;;9.93;3.40;;;17.90;93.40;;;;;;4986624;28;20065;-65
2022/04/28 09:36:44;;;;;;;11.85;3.90;;;18.90;93.10;;;;;;4988638;28;20018;-65
2022/04/28 09:44:50;;;;;;;10.07;3.25;;;19.50;90.00;;;;;;4988602;28;20037;-66
2022/04/28 09:47:20;;;;;;;13.30;4.45;;;19.60;86.30;;;;;;4989987;28;20885;-66
2022/04/28 09:49:53;;;;;;;11.60;4.75;;;18.30;89.60;;;;;;4991326;28;20034;-66
2022/04/28 09:52:31;;;;;;;11.77;3.72;;;18.10;90.80;;;;;;4987375;28;20014;-65
2022/04/28 09:54:59;;;;;;;11.82;3.92;;;19.00;90.60;;;;;;4987995;28;20022;-65
2022/04/28 09:57:26;;;;;;;13.88;4.45;;;19.40;88.80;;;;;;4990456;28;20030;-65
2022/04/28 09:59:57;;;;;;;11.00;3.38;;;19.40;89.90;;;;;;4988110;28;20059;-65
2022/04/28 10:02:25;;;;;;;11.05;3.70;;;20.10;83.20;;;;;;4979717;28;20035;-65
2022/04/28 10:04:52;;;;;;;12.18;4.57;;;20.00;83.40;;;;;;4990936;28;20022;-65
2022/04/28 10:07:18;;;;;;;9.25;3.75;;;20.30;82.00;;;;;;4989816;28;20030;-65
2022/04/28 10:09:52;;;;;;;10.73;4.03;;;20.10;80.80;;;;;;4987067;28;20031;-65
2022/04/28 10:12:25;;;;;;;13.43;5.30;;;20.60;82.70;;;;;;4987545;28;20509;-65
2022/04/28 10:14:54;;;;;;;12.25;4.45;;;18.80;82.80;;;;;;4988354;28;20030;-65
2022/04/28 10:17:28;;;;;;;16.90;5.20;;;19.50;82.00;;;;;;4988878;28;20317;-65
2022/04/28 10:19:58;;;;;;;15.07;4.90;;;19.20;83.80;;;;;;4990485;28;20383;-65
2022/04/28 10:22:32;;;;;;;15.00;4.70;;;18.80;85.40;;;;;;4988519;28;20054;-65
2022/04/28 10:33:20;;;;;;;15.40;5.40;;;19.30;79.30;;;;;;4984986;28;20128;-65
2022/04/28 10:35:54;;;;;;;16.70;5.35;;;17.80;82.90;;;;;;4988996;28;20026;-65
2022/04/28 10:38:30;;;;;;;15.55;5.40;;;18.80;78.70;;;;;;4983606;28;20031;-65
2022/04/28 10:41:03;;;;;;;12.10;4.93;;;17.50;84.40;;;;;;5013865;28;20097;-65
2022/04/28 10:43:38;;;;;;;10.52;3.78;;;18.00;85.30;;;;;;4986854;28;20077;-65
2022/04/28 10:46:06;;;;;;;15.73;5.55;;;20.90;81.70;;;;;;4986697;28;20084;-65
2022/04/28 10:48:42;;;;;;;13.40;4.30;;;21.40;82.00;;;;;;4987599;28;20069;-65
2022/04/28 10:51:15;;;;;;;13.13;5.00;;;19.90;78.70;;;;;;4984997;28;20023;-65
2022/04/28 10:53:56;;;;;;;14.10;4.95;;;18.90;80.80;;;;;;4985592;28;20034;-65
2022/04/28 10:56:25;;;;;;;11.90;3.90;;;20.00;79.80;;;;;;4986919;28;20026;-65
2022/04/28 10:58:55;;;;;;;10.20;3.75;;;22.00;79.60;;;;;;4987453;28;20038;-65
2022/04/28 11:01:26;;;;;;;11.77;4.45;;;22.10;75.80;;;;;;4986628;28;20038;-65
2022/04/28 11:03:57;;;;;;;14.18;5.05;;;21.90;73.40;;;;;;4988346;28;20126;-65
2022/04/28 11:06:32;;;;;;;13.40;5.10;;;22.60;70.50;;;;;;4985768;28;20034;-65
2022/04/28 11:09:02;;;;;;;16.92;5.05;;;21.10;75.00;;;;;;4983893;28;20057;-65
2022/04/28 11:11:47;;;;;;;17.20;5.53;;;20.40;77.50;;;;;;4987127;28;20538;-65
2022/04/28 11:14:14;;;;;;;13.10;5.70;;;20.20;78.90;;;;;;4984912;28;20049;-65
2022/04/28 11:16:41;;;;;;;11.88;4.53;;;20.20;75.40;;;;;;4983432;28;20030;-65
2022/04/28 11:19:08;;;;;;;15.13;5.53;;;20.20;77.40;;;;;;4988423;28;20026;-65
2022/04/28 11:21:39;;;;;;;13.70;4.93;;;20.20;76.20;;;;;;4990934;28;20030;-65
2022/04/28 11:24:06;;;;;;;14.02;5.07;;;20.90;76.50;;;;;;4994022;28;20022;-65
2022/04/28 11:26:32;;;;;;;14.77;5.35;;;20.50;75.00;;;;;;4997961;28;20030;-65
2022/04/28 11:29:06;;;;;;;14.55;5.13;;;21.50;73.50;;;;;;4990267;28;20065;-65
2022/04/28 11:31:32;;;;;;;16.85;5.28;;;21.50;75.40;;;;;;4987276;28;20161;-65
2022/04/28 11:33:57;;;;;;;12.98;4.70;;;21.00;75.00;;;;;;4988403;28;20436;-65
2022/04/28 11:36:27;;;;;;;14.30;4.15;;;20.70;76.40;;;;;;4988186;28;20348;-65
2022/04/28 11:38:57;;;;;;;11.27;4.28;;;21.50;77.60;;;;;;4988825;28;20038;-65
2022/04/28 11:41:35;;;;;;;15.30;4.60;;;21.80;74.10;;;;;;5001862;28;20030;-65
2022/04/28 11:44:07;;;;;;;13.73;5.13;;;22.90;71.80;;;;;;4990811;28;20033;-65
2022/04/28 11:46:48;;;;;;;12.45;4.88;;;24.50;68.30;;;;;;4989899;28;20023;-65
2022/04/28 11:49:14;;;;;;;15.93;5.88;;;23.80;65.70;;;;;;4984622;28;20026;-65
2022/04/28 11:51:40;;;;;;;13.35;4.75;;;21.40;73.20;;;;;;4989803;28;20362;-66
2022/04/28 11:54:19;;;;;;;14.30;4.93;;;23.00;71.70;;;;;;4984831;28;20100;-66
2022/04/28 11:56:45;;;;;;;12.00;4.57;;;25.70;67.80;;;;;;4985413;28;20033;-66
2022/04/28 11:59:11;;;;;;;13.57;4.75;;;26.40;64.40;;;;;;4986464;28;20121;-66
2022/04/28 12:01:39;;;;;;;15.77;5.15;;;24.10;68.70;;;;;;4987098;28;20543;-66
2022/04/28 12:04:05;;;;;;;13.27;5.30;;;24.50;66.80;;;;;;4988887;28;20026;-65
2022/04/28 12:06:31;;;;;;;15.70;5.57;;;22.10;68.30;;;;;;4988453;28;20223;-65
2022/04/28 12:14:32;;;;;;;14.43;5.00;;;21.40;73.00;;;;;;4986852;28;20057;-66
2022/04/28 12:19:47;;;;;;;13.80;4.75;;;21.90;69.60;;;;;;4986277;28;20085;-66
2022/04/28 12:22:14;;;;;;;13.77;5.22;;;22.50;67.40;;;;;;4989739;28;20034;-66
2022/04/28 12:24:43;;;;;;;14.65;5.13;;;21.10;71.10;;;;;;4988356;28;20027;-66
2022/04/28 12:27:11;;;;;;;11.65;4.38;;;22.10;71.60;;;;;;4988217;28;20033;-65
2022/04/28 12:29:54;;;;;;;12.02;4.63;;;21.30;74.00;;;;;;4989712;28;20501;-65
2022/04/28 12:32:21;;;;;;;14.80;5.93;;;22.80;68.80;;;;;;4984535;28;20600;-65
2022/04/28 12:34:59;;;;;;;13.68;5.05;;;20.40;71.60;;;;;;5019021;28;20581;-65
2022/04/28 12:37:27;;;;;;;15.70;5.15;;;21.00;73.90;;;;;;4985569;28;20023;-65
2022/04/28 12:40:01;;;;;;;17.42;5.65;;;21.80;73.80;;;;;;4987090;28;20035;-65
2022/04/28 12:42:43;;;;;;;15.98;5.13;;;23.50;67.60;;;;;;4982150;28;20109;-65
2022/04/28 12:45:09;;;;;;;14.43;4.93;;;22.20;68.50;;;;;;4984155;28;20077;-65
2022/04/28 12:47:36;;;;;;;13.32;4.93;;;25.20;65.40;;;;;;5016262;28;20101;-65
2022/04/28 12:50:24;;;;;;;13.05;5.00;;;24.20;65.30;;;;;;4985066;28;20030;-65
2022/04/28 12:52:50;;;;;;;14.30;5.30;;;22.10;69.20;;;;;;4982991;28;20082;-65
2022/04/28 12:55:18;;;;;;;15.00;4.60;;;21.60;70.70;;;;;;4986618;28;20113;-65
2022/04/28 12:57:45;;;;;;;12.70;4.50;;;23.20;69.30;;;;;;4985936;28;20313;-65
2022/04/28 13:00:11;;;;;;;13.70;5.60;;;24.30;68.70;;;;;;4986066;28;20027;-65
2022/04/28 13:02:38;;;;;;;12.15;4.60;;;23.80;64.70;;;;;;4987818;28;20542;-65
2022/04/28 13:05:18;;;;;;;11.70;4.28;;;23.80;67.00;;;;;;4984781;28;20346;-65
2022/04/28 13:07:44;;;;;;;12.27;4.60;;;23.20;67.50;;;;;;4988704;28;20022;-65
2022/04/28 13:10:12;;;;;;;13.75;4.72;;;23.80;67.00;;;;;;4986267;28;20056;-65
2022/04/28 13:12:38;;;;;;;14.23;4.90;;;22.30;65.50;;;;;;4989216;28;20125;-65
2022/04/28 13:15:05;;;;;;;14.88;5.10;;;21.60;68.70;;;;;;4987165;28;20570;-65
2022/04/28 13:17:31;;;;;;;13.35;4.95;;;23.40;65.60;;;;;;4987488;28;20023;-65
2022/04/28 13:19:58;;;;;;;13.45;4.78;;;23.30;65.80;;;;;;4986692;28;20118;-65
2022/04/28 13:22:24;;;;;;;11.23;4.55;;;24.70;63.10;;;;;;4986965;28;20057;-65
2022/04/28 13:24:50;;;;;;;13.02;4.72;;;22.30;66.30;;;;;;4987075;28;20014;-65